• Join FlightAware (Why Join?)
  • Login
  • US Flag 
05:13PM EDT


 

Airport Tracker/Info


-or-


 

Live Flight TrackerFlight Track Log ✈ N50906 ✈ 05-Sep-2013 ✈ KSET - KUBX

Flight Track Log - Related Links

Times and Time Zones

All times are in EDT time to prevent confusion due to time zone crossing. See the N50906 flight status page for this flight to view local times or setup timezone preferences in your user account.

Time Position Orientation Groundspeed Altitude Reporting Facility
EDT Latitude Longitude Course Direction KTS MPH feet Rate Location/Type
03:27PM 38.8833 -90.5167 223° Southwest 106 122 1,800  Level Gateway (St. Louis) TRACON
03:28PM 38.8675 -90.5581 244° Southwest 113 130 1,600 -60 Descending Kansas City Center
03:29PM 38.8656 -90.5947 266° West 109 125 1,700 180 Climbing Kansas City Center
03:30PM 38.8486 -90.6242 234° Southwest 106 122 2,000 480 Climbing Kansas City Center
03:31PM 38.8264 -90.6425 213° Southwest 100 115 2,700 540 Climbing Kansas City Center
03:32PM 38.7678 -90.6204 223° Southwest  Level Estimated
03:32PM 38.8056 -90.6631 218° Southwest 96 110 3,200  Level Kansas City Center
03:33PM 38.7811 -90.6878 218° Southwest 95 109 3,900 480 Climbing Kansas City Center
03:34PM 38.7606 -90.7097 220° Southwest 95 109 4,300 180 Climbing Kansas City Center
03:35PM 38.7333 -90.7500 229° Southwest 106 122 4,400  Climbing Gateway (St. Louis) TRACON
03:36PM 38.7156 -90.7603 204° Southwest 106 122 4,400 -120 Level Kansas City Center
03:37PM 38.6906 -90.7811 213° Southwest 107 123 4,300  Descending Kansas City Center
03:38PM 38.6603 -90.8100 217° Southwest 110 127 4,400  Climbing Kansas City Center
03:39PM 38.6358 -90.8336 217° Southwest 111 128 4,300 -60 Descending Kansas City Center
03:40PM 38.6117 -90.8583 219° Southwest 111 128 4,300 -60 Level Kansas City Center
03:41PM 38.5878 -90.8819 218° Southwest 110 127 4,200  Descending Kansas City Center
03:42PM 38.5642 -90.9061 219° Southwest 110 127 4,300  Climbing Kansas City Center
03:43PM 38.5422 -90.9300 220° Southwest 107 123 4,300  Level Kansas City Center
03:44PM 38.5172 -90.9656 228° Southwest 109 125 4,300  Level Kansas City Center
03:45PM 38.4969 -90.9933 227° Southwest 110 127 4,300  Level Kansas City Center
03:46PM 38.4744 -91.0181 221° Southwest 108 124 4,300  Level Kansas City Center
03:47PM 38.4511 -91.0411 218° Southwest 106 122 4,300  Level Kansas City Center
03:48PM 38.4269 -91.0631 215° Southwest 107 123 4,300  Level Kansas City Center
03:49PM 38.3994 -91.0917 219° Southwest 106 122 4,300  Level Kansas City Center
03:50PM 38.3781 -91.1169 223° Southwest 106 122 4,300  Level Kansas City Center
03:51PM 38.3586 -91.1433 227° Southwest 104 120 4,300  Level Kansas City Center
03:52PM 38.3381 -91.1694 225° Southwest 105 121 4,400  Climbing Kansas City Center
03:54PM 38.3150 -91.1936 219° Southwest 106 122 4,400  Level Kansas City Center
03:55PM 38.2931 -91.2172 220° Southwest 105 121 4,400  Level Kansas City Center